createdAt,value
2018-02-01T00:01:39.328Z,8.03
2018-02-01T00:04:06.856Z,8.02
2018-02-01T00:06:34.353Z,7.96
2018-02-01T00:09:02.335Z,8.23
2018-02-01T00:11:29.849Z,8.05
2018-02-01T00:13:57.391Z,8.20
2018-02-01T00:16:24.921Z,8.16
2018-02-01T00:18:52.425Z,7.91
2018-02-01T00:21:19.986Z,7.94
2018-02-01T00:23:47.503Z,7.87
2018-02-01T00:26:15.012Z,8.06
2018-02-01T00:28:43.386Z,7.98
2018-02-01T00:31:10.915Z,7.96
2018-02-01T00:33:38.679Z,7.82
2018-02-01T00:36:08.594Z,8.35
2018-02-01T00:38:36.100Z,7.92
2018-02-01T00:41:03.620Z,8.47
2018-02-01T00:43:31.115Z,8.50
2018-02-01T00:45:58.661Z,8.54
2018-02-01T00:48:26.185Z,8.70
2018-02-01T00:50:53.684Z,8.76
2018-02-01T00:53:21.208Z,8.75
2018-02-01T00:55:48.701Z,8.87
2018-02-01T00:58:16.421Z,8.78
2018-02-01T01:00:43.928Z,8.34
2018-02-01T01:03:11.439Z,8.26
2018-02-01T01:05:56.323Z,8.24
2018-02-01T01:08:23.873Z,8.07
2018-02-01T01:10:52.316Z,7.77
2018-02-01T01:13:19.845Z,7.85
2018-02-01T01:15:47.348Z,7.82
2018-02-01T01:18:15.094Z,7.76
2018-02-01T01:20:42.620Z,7.83
2018-02-01T01:23:10.138Z,7.61
2018-02-01T01:25:37.959Z,7.56
2018-02-01T01:28:05.457Z,7.48
2018-02-01T01:30:32.968Z,7.35
2018-02-01T01:33:00.660Z,7.52
2018-02-01T01:35:28.157Z,7.36
2018-02-01T01:37:55.662Z,7.23
2018-02-01T01:40:23.348Z,7.27
2018-02-01T01:42:50.881Z,7.22
2018-02-01T01:45:19.404Z,7.35
2018-02-01T01:47:47.030Z,7.23
2018-02-01T01:50:14.532Z,7.29
2018-02-01T01:52:42.034Z,7.18
2018-02-01T01:55:09.813Z,7.35
2018-02-01T01:57:37.321Z,7.38
2018-02-01T02:00:04.817Z,7.49
2018-02-01T02:02:32.352Z,7.47
2018-02-01T02:04:59.855Z,7.29
2018-02-01T02:07:27.356Z,7.27
2018-02-01T02:09:55.119Z,7.14
2018-02-01T02:12:22.621Z,7.28
2018-02-01T02:14:50.116Z,7.25
2018-02-01T02:17:17.650Z,7.21
2018-02-01T02:19:45.153Z,7.47
2018-02-01T02:22:12.661Z,7.41
2018-02-01T02:24:40.181Z,7.37
2018-02-01T02:27:07.682Z,7.33
2018-02-01T02:29:35.187Z,7.22
2018-02-01T02:32:02.715Z,7.11
2018-02-01T02:34:30.209Z,7.33
2018-02-01T02:36:57.709Z,7.39
2018-02-01T02:39:25.229Z,7.11
2018-02-01T02:41:52.728Z,6.80
2018-02-01T02:44:20.232Z,6.93
2018-02-01T02:46:47.753Z,6.88
2018-02-01T02:49:15.249Z,6.96
2018-02-01T02:51:42.744Z,6.96
2018-02-01T02:54:10.276Z,6.99
2018-02-01T02:56:37.769Z,6.87
2018-02-01T02:59:06.260Z,6.62
2018-02-01T03:01:33.792Z,6.70
2018-02-01T03:04:01.293Z,6.88
2018-02-01T03:06:28.796Z,6.77
2018-02-01T03:08:56.322Z,6.48
2018-02-01T03:11:23.812Z,6.60
2018-02-01T03:13:51.308Z,6.78
2018-02-01T03:16:18.832Z,6.90
2018-02-01T03:18:46.323Z,6.84
2018-02-01T03:21:13.820Z,6.97
2018-02-01T03:23:41.341Z,7.09
2018-02-01T03:26:08.855Z,6.98
2018-02-01T03:28:36.356Z,7.14
2018-02-01T03:31:03.876Z,6.98
2018-02-01T03:33:31.377Z,6.69
2018-02-01T03:35:58.877Z,6.42
2018-02-01T03:38:26.392Z,6.55
2018-02-01T03:40:53.888Z,6.49
2018-02-01T03:43:21.402Z,6.48
2018-02-01T03:45:48.935Z,6.58
2018-02-01T03:48:16.441Z,6.55
2018-02-01T03:50:43.939Z,6.37
2018-02-01T03:53:11.460Z,6.58
2018-02-01T03:55:38.957Z,6.69
2018-02-01T03:58:06.465Z,6.50
2018-02-01T04:00:34.003Z,6.41
2018-02-01T04:03:01.509Z,6.60
2018-02-01T04:05:29.002Z,6.39
2018-02-01T04:07:56.528Z,6.58
2018-02-01T04:10:24.020Z,6.39
2018-02-01T04:12:51.536Z,6.59
2018-02-01T04:15:19.070Z,6.57
2018-02-01T04:17:46.561Z,6.44
2018-02-01T04:20:14.068Z,6.47
2018-02-01T04:22:41.596Z,6.57
2018-02-01T04:25:09.107Z,6.72
2018-02-01T04:27:36.608Z,6.81
2018-02-01T04:30:04.145Z,6.78
2018-02-01T04:32:31.657Z,6.81
2018-02-01T04:34:59.156Z,6.91
2018-02-01T04:37:26.684Z,6.90
2018-02-01T04:39:54.208Z,6.95
2018-02-01T04:42:21.700Z,6.71
2018-02-01T04:44:49.220Z,6.89
2018-02-01T04:47:17.696Z,6.92
2018-02-01T04:49:45.193Z,6.64
2018-02-01T04:52:12.717Z,6.86
2018-02-01T04:54:40.221Z,7.12
2018-02-01T04:57:07.721Z,7.14
2018-02-01T04:59:35.244Z,7.17
2018-02-01T05:02:02.740Z,7.11
2018-02-01T05:04:30.240Z,7.20
2018-02-01T05:06:57.772Z,7.30
2018-02-01T05:09:25.269Z,7.02
2018-02-01T05:11:52.763Z,6.86
2018-02-01T05:14:20.285Z,6.70
2018-02-01T05:16:47.780Z,6.63
2018-02-01T05:19:15.278Z,6.61
2018-02-01T05:21:42.803Z,6.61
2018-02-01T05:24:10.309Z,6.52
2018-02-01T05:26:37.806Z,6.26
2018-02-01T05:29:05.328Z,6.30
2018-02-01T05:31:32.825Z,6.22
2018-02-01T05:34:00.330Z,6.29
2018-02-01T05:36:27.849Z,6.23
2018-02-01T05:38:56.292Z,6.26
2018-02-01T05:41:23.824Z,6.19
2018-02-01T05:43:51.392Z,6.10
2018-02-01T05:46:18.902Z,6.17
2018-02-01T05:48:46.433Z,6.05
2018-02-01T05:51:14.082Z,5.88
2018-02-01T05:53:41.587Z,5.90
2018-02-01T05:56:09.092Z,5.82
2018-02-01T05:58:36.617Z,6.04
2018-02-01T06:01:04.112Z,5.86
2018-02-01T06:03:31.617Z,5.86
2018-02-01T06:05:59.154Z,5.86
2018-02-01T06:08:26.680Z,5.86
2018-02-01T06:10:54.193Z,5.36
2018-02-01T06:13:21.722Z,5.56
2018-02-01T06:15:49.227Z,5.56
2018-02-01T06:18:16.738Z,5.62
2018-02-01T06:20:45.201Z,5.62
2018-02-01T06:23:13.688Z,5.49
2018-02-01T06:25:41.217Z,5.35
2018-02-01T06:28:08.736Z,5.30
2018-02-01T06:30:36.239Z,5.51
2018-02-01T06:33:03.787Z,5.48
2018-02-01T06:35:31.314Z,5.32
2018-02-01T06:37:59.761Z,5.35
2018-02-01T06:40:27.285Z,5.06
2018-02-01T06:42:54.785Z,5.21
2018-02-01T06:45:22.311Z,5.60
2018-02-01T06:47:49.812Z,5.34
2018-02-01T06:50:17.353Z,5.23
2018-02-01T06:52:44.849Z,5.48
2018-02-01T06:55:12.344Z,5.58
2018-02-01T06:57:39.864Z,5.85
2018-02-01T07:00:07.361Z,5.57
2018-02-01T07:02:34.880Z,5.24
2018-02-01T07:05:02.420Z,5.53
2018-02-01T07:07:29.932Z,5.82
2018-02-01T07:09:57.457Z,5.64
2018-02-01T07:12:24.952Z,5.62
2018-02-01T07:14:52.473Z,5.90
2018-02-01T07:17:20.013Z,6.05
2018-02-01T07:19:48.449Z,6.16
2018-02-01T07:22:15.968Z,6.15
2018-02-01T07:24:43.488Z,6.16
2018-02-01T07:27:11.224Z,6.35
2018-02-01T07:29:39.630Z,6.40
2018-02-01T07:32:07.188Z,6.34
2018-02-01T07:34:34.728Z,6.50
2018-02-01T07:37:02.236Z,6.60
2018-02-01T07:39:29.942Z,6.37
2018-02-01T07:41:57.436Z,6.60
2018-02-01T07:44:25.420Z,6.71
2018-02-01T07:46:58.437Z,6.77
2018-02-01T07:49:25.955Z,6.82
2018-02-01T07:51:53.777Z,6.86
2018-02-01T07:54:21.277Z,6.79
2018-02-01T07:56:48.777Z,6.79
2018-02-01T07:59:16.300Z,6.63
2018-02-01T08:01:43.803Z,6.45
2018-02-01T08:04:11.574Z,6.54
2018-02-01T08:06:39.076Z,6.38
2018-02-01T08:09:06.572Z,6.27
2018-02-01T08:11:34.113Z,6.40
2018-02-01T08:14:01.610Z,6.49
2018-02-01T08:16:29.470Z,6.73
2018-02-01T08:18:57.467Z,6.74
2018-02-01T08:21:24.964Z,6.59
2018-02-01T08:23:52.500Z,6.53
2018-02-01T08:26:19.999Z,6.51
2018-02-01T08:28:47.735Z,6.74
2018-02-01T08:31:15.232Z,6.71
2018-02-01T08:33:42.792Z,6.70
2018-02-01T08:36:10.320Z,6.87
2018-02-01T08:38:37.818Z,6.75
2018-02-01T08:41:05.479Z,7.10
2018-02-01T08:43:33.002Z,7.26
2018-02-01T08:46:00.497Z,7.27
2018-02-01T08:48:28.025Z,7.41
2018-02-01T08:50:55.529Z,7.32
2018-02-01T08:53:24.013Z,7.28
2018-02-01T08:55:51.514Z,7.09
2018-02-01T08:58:19.020Z,7.12
2018-02-01T09:00:46.543Z,6.96
2018-02-01T09:03:14.040Z,7.29
2018-02-01T09:05:41.585Z,7.39
2018-02-01T09:08:09.088Z,7.39
2018-02-01T09:10:36.591Z,7.30
2018-02-01T09:13:04.122Z,7.46
2018-02-01T09:15:31.674Z,7.62
2018-02-01T09:17:59.204Z,7.50
2018-02-01T09:20:26.754Z,7.27
2018-02-01T09:22:54.258Z,7.61
2018-02-01T09:25:21.781Z,7.66
2018-02-01T09:27:49.280Z,7.41
2018-02-01T09:30:17.060Z,7.23
2018-02-01T09:32:44.568Z,7.76
2018-02-01T09:35:12.073Z,7.62
2018-02-01T09:37:39.592Z,8.01
2018-02-01T09:40:07.085Z,8.15
2018-02-01T09:42:34.862Z,7.49
2018-02-01T09:45:02.372Z,8.02
2018-02-01T09:47:29.909Z,7.91
2018-02-01T09:49:57.429Z,8.13
2018-02-01T09:52:24.933Z,8.43
2018-02-01T09:54:52.860Z,8.04
2018-02-01T09:57:21.366Z,8.47
2018-02-01T09:59:48.861Z,8.55
2018-02-01T10:02:16.387Z,8.50
2018-02-01T10:04:43.892Z,8.63
2018-02-01T10:07:11.425Z,8.48
2018-02-01T10:09:38.921Z,8.07
2018-02-01T10:12:06.428Z,8.21
2018-02-01T10:14:33.957Z,8.22
2018-02-01T10:17:01.455Z,7.63
2018-02-01T10:19:28.996Z,7.64
2018-02-01T10:21:56.502Z,7.63
2018-02-01T10:24:23.996Z,7.73
2018-02-01T10:26:51.562Z,7.90
2018-02-01T10:29:19.040Z,7.87
2018-02-01T10:31:46.761Z,8.04
2018-02-01T10:34:14.260Z,7.84
2018-02-01T10:36:41.752Z,8.27
2018-02-01T10:39:09.282Z,8.18
2018-02-01T10:41:36.821Z,8.06
2018-02-01T10:44:04.368Z,8.16
2018-02-01T10:46:31.924Z,8.27
2018-02-01T10:48:59.435Z,8.08
2018-02-01T10:51:26.961Z,8.32
2018-02-01T10:53:54.515Z,8.42
2018-02-01T10:56:22.249Z,8.06
2018-02-01T10:58:49.752Z,8.15
2018-02-01T11:01:17.256Z,8.19
2018-02-01T11:03:44.781Z,8.03
2018-02-01T11:06:12.276Z,7.98
2018-02-01T11:08:40.021Z,8.04
2018-02-01T11:11:07.520Z,8.11
2018-02-01T11:13:35.023Z,7.83
2018-02-01T11:16:02.546Z,8.27
2018-02-01T11:18:30.053Z,8.35
2018-02-01T11:20:57.741Z,8.33
2018-02-01T11:23:25.269Z,8.17
2018-02-01T11:25:52.768Z,7.65
2018-02-01T11:28:20.296Z,7.96
2018-02-01T11:30:47.804Z,7.57
2018-02-01T11:33:15.539Z,7.35
2018-02-01T11:35:43.036Z,7.33
2018-02-01T11:38:10.726Z,7.86
2018-02-01T11:40:38.257Z,7.72
2018-02-01T11:43:05.753Z,7.55
2018-02-01T11:45:33.640Z,7.81
2018-02-01T11:48:01.154Z,7.34
2018-02-01T11:50:28.657Z,7.76
2018-02-01T11:52:56.181Z,7.64
2018-02-01T11:55:23.680Z,7.77
2018-02-01T11:57:51.770Z,8.00
2018-02-01T12:00:19.264Z,7.91
2018-02-01T12:02:46.765Z,7.57
2018-02-01T12:05:14.297Z,7.68
2018-02-01T12:07:41.797Z,7.70
2018-02-01T12:10:09.540Z,7.79
2018-02-01T12:12:37.042Z,7.78
2018-02-01T12:15:04.588Z,7.69
2018-02-01T12:17:32.113Z,7.76
2018-02-01T12:19:59.622Z,8.11
2018-02-01T12:22:27.201Z,8.43
2018-02-01T12:24:54.706Z,8.21
2018-02-01T12:27:22.225Z,8.58
2018-02-01T12:29:49.752Z,8.51
2018-02-01T12:32:17.249Z,8.58
2018-02-01T12:34:45.131Z,8.43
2018-02-01T12:37:13.640Z,8.59
2018-02-01T12:39:41.901Z,8.32
2018-02-01T12:42:09.429Z,8.01
2018-02-01T12:44:36.941Z,8.05
2018-02-01T12:47:04.699Z,8.39
2018-02-01T12:49:32.255Z,8.22
2018-02-01T12:51:59.763Z,8.26
2018-02-01T12:54:27.284Z,8.27
2018-02-01T12:56:54.788Z,7.55
2018-02-01T12:59:22.641Z,7.89
2018-02-01T13:01:50.246Z,7.86
2018-02-01T13:04:17.751Z,7.67
2018-02-01T13:06:45.285Z,7.37
2018-02-01T13:09:12.790Z,7.13
2018-02-01T13:11:40.389Z,7.20
2018-02-01T13:14:07.892Z,7.28
2018-02-01T13:16:35.484Z,6.83
2018-02-01T13:19:03.066Z,7.44
2018-02-01T13:21:30.621Z,7.59
2018-02-01T13:23:58.388Z,7.04
2018-02-01T13:26:25.946Z,7.07
2018-02-01T13:28:53.538Z,7.20
2018-02-01T13:31:21.169Z,7.18
2018-02-01T13:33:48.728Z,7.33
2018-02-01T13:36:16.287Z,7.42
2018-02-01T13:38:43.846Z,6.98
2018-02-01T13:41:11.406Z,6.83
2018-02-01T13:43:38.969Z,6.64
2018-02-01T13:46:06.473Z,6.90
2018-02-01T13:48:34.286Z,7.18
2018-02-01T13:51:01.809Z,6.88
2018-02-01T13:53:29.321Z,7.18
2018-02-01T13:55:56.865Z,7.13
2018-02-01T13:58:24.423Z,7.10
2018-02-01T14:00:51.987Z,7.38
2018-02-01T14:03:19.540Z,7.29
2018-02-01T14:05:48.123Z,7.52
2018-02-01T14:08:15.682Z,7.36
2018-02-01T14:10:43.187Z,7.52
2018-02-01T14:13:10.737Z,7.37
2018-02-01T14:15:38.245Z,7.57
2018-02-01T14:18:05.761Z,7.42
2018-02-01T14:20:33.478Z,7.66
2018-02-01T14:23:01.141Z,7.16
2018-02-01T14:25:29.212Z,7.63
2018-02-01T14:27:56.884Z,7.53
2018-02-01T14:30:24.433Z,7.14
2018-02-01T14:32:51.992Z,7.10
2018-02-01T14:35:19.553Z,7.05
2018-02-01T14:37:47.419Z,7.01
2018-02-01T14:40:15.898Z,7.19
2018-02-01T14:42:43.458Z,6.87
2018-02-01T14:45:11.016Z,7.13
2018-02-01T14:47:38.529Z,6.68
2018-02-01T14:50:06.385Z,6.76
2018-02-01T14:52:33.920Z,6.71
2018-02-01T14:55:01.436Z,6.61
2018-02-01T14:57:29.018Z,6.86
2018-02-01T14:59:56.576Z,6.80
2018-02-01T15:02:24.341Z,6.54
2018-02-01T15:04:51.900Z,6.65
2018-02-01T15:07:19.759Z,6.67
2018-02-01T15:09:47.293Z,6.66
2018-02-01T15:12:14.884Z,6.43
2018-02-01T15:14:42.637Z,6.70
2018-02-01T15:17:10.164Z,6.61
2018-02-01T15:19:37.693Z,6.38
2018-02-01T15:22:05.326Z,6.80
2018-02-01T15:24:32.875Z,6.25
2018-02-01T15:27:00.674Z,6.58
2018-02-01T15:29:28.216Z,6.40
2018-02-01T15:31:55.745Z,6.36
2018-02-01T15:34:23.326Z,6.51
2018-02-01T15:36:50.886Z,6.53
2018-02-01T15:39:18.453Z,6.52
2018-02-01T15:41:46.030Z,6.30
2018-02-01T15:44:13.769Z,6.14
2018-02-01T15:46:41.328Z,6.59
2018-02-01T15:49:08.887Z,6.35
2018-02-01T15:51:36.451Z,6.55
2018-02-01T15:54:04.232Z,6.58
2018-02-01T15:56:32.728Z,6.42
2018-02-01T15:59:00.471Z,6.51
2018-02-01T16:01:28.207Z,6.43
2018-02-01T16:03:55.880Z,6.39
2018-02-01T16:06:23.747Z,6.37
2018-02-01T16:08:51.277Z,6.37
2018-02-01T16:11:19.147Z,6.64
2018-02-01T16:13:46.936Z,6.76
2018-02-01T16:16:15.827Z,6.57
2018-02-01T16:18:43.590Z,6.70
2018-02-01T16:21:11.157Z,6.53
2018-02-01T16:23:38.764Z,6.42
2018-02-01T16:26:06.268Z,6.71
2018-02-01T16:28:34.005Z,6.61
2018-02-01T16:31:01.818Z,6.86
2018-02-01T16:33:29.416Z,7.08
2018-02-01T16:35:57.026Z,6.85
2018-02-01T16:38:24.575Z,6.53
2018-02-01T16:40:52.340Z,6.71
2018-02-01T16:43:19.903Z,6.70
2018-02-01T16:45:47.472Z,6.94
2018-02-01T16:48:15.029Z,6.82
2018-02-01T16:50:42.577Z,6.98
2018-02-01T16:53:10.545Z,6.79
2018-02-01T16:55:38.137Z,6.87
2018-02-01T16:58:05.681Z,6.70
2018-02-01T17:00:33.232Z,6.94
2018-02-01T17:03:00.973Z,6.56
2018-02-01T17:05:29.062Z,6.60
2018-02-01T17:08:00.099Z,6.78
2018-02-01T17:10:27.720Z,6.84
2018-02-01T17:12:55.298Z,6.63
2018-02-01T17:15:23.233Z,6.96
2018-02-01T17:17:51.052Z,6.62
2018-02-01T17:20:18.715Z,6.71
2018-02-01T17:22:46.352Z,6.68
2018-02-01T17:25:14.143Z,6.44
2018-02-01T17:27:41.997Z,6.62
2018-02-01T17:30:09.824Z,6.66
2018-02-01T17:32:37.544Z,6.49
2018-02-01T17:35:05.299Z,6.69
2018-02-01T17:37:32.830Z,6.50
2018-02-01T17:40:00.345Z,6.57
2018-02-01T17:42:28.376Z,6.53
2018-02-01T17:44:56.047Z,6.64
2018-02-01T17:47:23.617Z,6.31
2018-02-01T17:49:51.162Z,6.74
2018-02-01T17:52:18.929Z,6.41
2018-02-01T17:54:46.898Z,6.46
2018-02-01T17:57:14.565Z,6.34
2018-02-01T17:59:42.130Z,6.53
2018-02-01T18:02:09.986Z,6.43
2018-02-01T18:04:37.541Z,6.53
2018-02-01T18:07:05.139Z,6.20
2018-02-01T18:09:32.659Z,6.23
2018-02-01T18:12:00.247Z,6.32
2018-02-01T18:14:27.797Z,6.40
2018-02-01T18:16:55.325Z,6.24
2018-02-01T18:19:23.105Z,6.58
2018-02-01T18:21:50.685Z,6.40
2018-02-01T18:24:18.223Z,6.73
2018-02-01T18:26:45.786Z,6.65
2018-02-01T18:29:13.325Z,6.76
2018-02-01T18:31:40.897Z,6.64
2018-02-01T18:34:08.575Z,6.81
2018-02-01T18:36:42.316Z,6.49
2018-02-01T18:39:09.960Z,6.64
2018-02-01T18:41:37.652Z,6.70
2018-02-01T18:44:05.229Z,6.38
2018-02-01T18:46:32.752Z,6.43
2018-02-01T18:49:00.500Z,6.48
2018-02-01T18:51:33.482Z,6.73
2018-02-01T18:54:01.341Z,6.39
2018-02-01T18:56:28.850Z,6.59
2018-02-01T18:58:56.364Z,6.73
2018-02-01T19:01:24.004Z,6.64
2018-02-01T19:03:51.517Z,6.39
2018-02-01T19:06:19.392Z,6.62
2018-02-01T19:08:46.988Z,6.64
2018-02-01T19:11:14.610Z,6.52
2018-02-01T19:13:42.407Z,6.42
2018-02-01T19:16:10.186Z,6.33
2018-02-01T19:18:38.144Z,6.48
2018-02-01T19:21:05.806Z,6.52
2018-02-01T19:23:33.369Z,6.36
2018-02-01T19:26:01.233Z,6.21
2018-02-01T19:28:28.996Z,6.62
2018-02-01T19:30:56.862Z,6.39
2018-02-01T19:33:24.834Z,6.59
2018-02-01T19:35:52.697Z,6.39
2018-02-01T19:38:21.263Z,6.30
2018-02-01T19:40:49.108Z,6.27
2018-02-01T19:43:16.911Z,6.14
2018-02-01T19:45:45.412Z,6.37
2018-02-01T19:48:13.260Z,6.33
2018-02-01T19:50:41.137Z,6.17
2018-02-01T19:53:08.906Z,5.77
2018-02-01T19:55:37.313Z,5.61
2018-02-01T19:58:05.651Z,5.29
2018-02-01T20:00:33.526Z,5.40
2018-02-01T20:03:01.904Z,5.29
2018-02-01T20:05:29.881Z,5.42
2018-02-01T20:07:57.949Z,5.41
2018-02-01T20:10:26.547Z,5.66
2018-02-01T20:12:54.541Z,5.45
2018-02-01T20:15:24.947Z,5.34
2018-02-01T20:17:52.895Z,5.02
2018-02-01T20:20:21.597Z,5.02
2018-02-01T20:22:49.567Z,4.97
2018-02-01T20:25:17.811Z,4.94
2018-02-01T20:27:47.828Z,4.84
2018-02-01T20:30:15.794Z,5.19
2018-02-01T20:32:43.764Z,5.29
2018-02-01T20:35:11.630Z,5.03
2018-02-01T20:37:39.802Z,5.00
2018-02-01T20:40:08.394Z,5.02
2018-02-01T20:42:36.258Z,5.18
2018-02-01T20:45:04.528Z,5.00
2018-02-01T20:47:32.351Z,5.20
2018-02-01T20:50:00.232Z,5.13
2018-02-01T20:52:28.742Z,5.19
2018-02-01T20:54:56.518Z,5.28
2018-02-01T20:57:24.679Z,5.00
2018-02-01T20:59:53.367Z,4.91
2018-02-01T21:02:22.153Z,4.97
2018-02-01T21:04:50.544Z,4.94
2018-02-01T21:07:18.302Z,4.66
2018-02-01T21:09:46.375Z,4.73
2018-02-01T21:12:14.131Z,4.55
2018-02-01T21:14:42.716Z,4.95
2018-02-01T21:17:10.683Z,5.19
2018-02-01T21:19:38.470Z,4.96
2018-02-01T21:22:11.947Z,5.06
2018-02-01T21:24:39.814Z,4.84
2018-02-01T21:27:07.576Z,4.69
2018-02-01T21:29:35.443Z,4.45
2018-02-01T21:32:03.615Z,4.35
2018-02-01T21:34:32.446Z,4.51
2018-02-01T21:37:00.271Z,4.41
2018-02-01T21:39:28.477Z,4.52
2018-02-01T21:41:59.377Z,4.74
2018-02-01T21:44:27.146Z,4.61
2018-02-01T21:46:55.321Z,4.72
2018-02-01T21:49:23.289Z,4.37
2018-02-01T21:51:51.107Z,4.41
2018-02-01T21:54:18.821Z,4.81
2018-02-01T21:56:46.683Z,4.61
2018-02-01T21:59:14.761Z,4.73
2018-02-01T22:01:43.453Z,4.65
2018-02-01T22:04:11.510Z,4.59
2018-02-01T22:06:39.192Z,4.45
2018-02-01T22:09:06.853Z,4.78
2018-02-01T22:11:34.913Z,4.88
2018-02-01T22:14:02.464Z,4.82
2018-02-01T22:16:30.024Z,4.87
2018-02-01T22:18:57.558Z,4.75
2018-02-01T22:21:25.078Z,4.87
2018-02-01T22:23:52.804Z,4.90
2018-02-01T22:26:20.413Z,5.05
2018-02-01T22:28:47.952Z,5.15
2018-02-01T22:31:15.514Z,5.08
2018-02-01T22:33:43.050Z,5.01
2018-02-01T22:36:10.633Z,4.97
2018-02-01T22:38:38.141Z,4.83
2018-02-01T22:41:05.718Z,4.82
2018-02-01T22:43:33.257Z,4.70
2018-02-01T22:46:00.764Z,4.83
2018-02-01T22:48:28.370Z,5.01
2018-02-01T22:50:55.885Z,4.97
2018-02-01T22:53:24.334Z,4.84
2018-02-01T22:55:51.933Z,4.84
2018-02-01T22:58:29.283Z,4.85
2018-02-01T23:00:57.415Z,4.87
2018-02-01T23:03:24.928Z,4.68
2018-02-01T23:05:52.473Z,4.80
2018-02-01T23:08:32.737Z,4.87
2018-02-01T23:11:00.318Z,4.79
2018-02-01T23:13:27.889Z,4.74
2018-02-01T23:15:55.406Z,4.93
2018-02-01T23:18:22.966Z,4.82
2018-02-01T23:20:50.525Z,4.75
2018-02-01T23:23:18.028Z,4.72
2018-02-01T23:25:45.756Z,4.67
2018-02-01T23:28:13.713Z,4.54
2018-02-01T23:30:41.276Z,4.40
2018-02-01T23:33:08.816Z,4.53
2018-02-01T23:35:36.338Z,4.42
2018-02-01T23:38:03.891Z,4.02
2018-02-01T23:40:31.407Z,3.91
2018-02-01T23:42:58.966Z,3.92
2018-02-01T23:45:26.526Z,3.77
2018-02-01T23:47:55.039Z,3.82
2018-02-01T23:50:22.771Z,4.08
2018-02-01T23:52:50.331Z,4.09
2018-02-01T23:55:17.890Z,4.06
2018-02-01T23:57:45.447Z,4.00
